sensor_id;sensor_type;location;lat;lon;timestamp;pressure;altitude;pressure_sealevel;temperature;humidity
76434;BME280;65265;53.200;6.080;2022-12-17T00:03:09;102235.25;;;-1.36;96.53
76434;BME280;65265;53.200;6.080;2022-12-17T00:08:18;102243.50;;;-1.37;96.39
76434;BME280;65265;53.200;6.080;2022-12-17T00:13:28;102250.88;;;-1.38;96.40
76434;BME280;65265;53.200;6.080;2022-12-17T00:18:37;102248.59;;;-1.44;96.46
76434;BME280;65265;53.200;6.080;2022-12-17T00:23:46;102253.13;;;-1.48;96.21
76434;BME280;65265;53.200;6.080;2022-12-17T00:28:57;102255.78;;;-1.47;96.58
76434;BME280;65265;53.200;6.080;2022-12-17T00:34:06;102274.06;;;-1.48;96.31
76434;BME280;65265;53.200;6.080;2022-12-17T00:39:15;102270.00;;;-1.54;96.20
76434;BME280;65265;53.200;6.080;2022-12-17T00:44:25;102261.38;;;-1.49;96.07
76434;BME280;65265;53.200;6.080;2022-12-17T00:49:46;102267.09;;;-1.50;96.07
76434;BME280;65265;53.200;6.080;2022-12-17T00:54:55;102273.41;;;-1.54;95.87
76434;BME280;65265;53.200;6.080;2022-12-17T01:00:07;102270.41;;;-1.58;96.18
76434;BME280;65265;53.200;6.080;2022-12-17T01:05:16;102280.25;;;-1.60;96.20
76434;BME280;65265;53.200;6.080;2022-12-17T01:10:25;102287.44;;;-1.63;96.23
76434;BME280;65265;53.200;6.080;2022-12-17T01:15:36;102270.13;;;-1.68;96.25
76434;BME280;65265;53.200;6.080;2022-12-17T01:20:45;102270.63;;;-1.64;96.33
76434;BME280;65265;53.200;6.080;2022-12-17T01:25:55;102282.09;;;-1.66;96.69
76434;BME280;65265;53.200;6.080;2022-12-17T01:31:06;102293.34;;;-1.62;96.26
76434;BME280;65265;53.200;6.080;2022-12-17T01:36:15;102283.38;;;-1.69;96.43
76434;BME280;65265;53.200;6.080;2022-12-17T01:41:24;102297.47;;;-1.63;96.28
76434;BME280;65265;53.200;6.080;2022-12-17T01:46:36;102313.63;;;-1.68;96.16
76434;BME280;65265;53.200;6.080;2022-12-17T01:51:49;102314.94;;;-1.71;96.02
76434;BME280;65265;53.200;6.080;2022-12-17T01:56:59;102308.38;;;-1.62;95.96
76434;BME280;65265;53.200;6.080;2022-12-17T02:02:10;102314.53;;;-1.67;95.92
76434;BME280;65265;53.200;6.080;2022-12-17T02:07:27;102307.00;;;-1.67;96.04
76434;BME280;65265;53.200;6.080;2022-12-17T02:12:43;102330.22;;;-1.61;95.75
76434;BME280;65265;53.200;6.080;2022-12-17T02:17:58;102319.31;;;-1.62;95.68
76434;BME280;65265;53.200;6.080;2022-12-17T02:23:20;102322.22;;;-1.66;95.96
76434;BME280;65265;53.200;6.080;2022-12-17T02:28:37;102330.63;;;-1.65;95.84
76434;BME280;65265;53.200;6.080;2022-12-17T02:33:47;102319.88;;;-1.64;95.92
76434;BME280;65265;53.200;6.080;2022-12-17T02:38:56;102325.56;;;-1.58;95.75
76434;BME280;65265;53.200;6.080;2022-12-17T02:44:08;102339.16;;;-1.56;95.65
76434;BME280;65265;53.200;6.080;2022-12-17T02:49:17;102343.13;;;-1.58;95.50
76434;BME280;65265;53.200;6.080;2022-12-17T02:54:27;102346.56;;;-1.65;95.38
76434;BME280;65265;53.200;6.080;2022-12-17T02:59:38;102352.09;;;-1.60;95.53
76434;BME280;65265;53.200;6.080;2022-12-17T03:04:47;102344.38;;;-1.55;95.28
76434;BME280;65265;53.200;6.080;2022-12-17T03:09:56;102350.66;;;-1.58;95.21
76434;BME280;65265;53.200;6.080;2022-12-17T03:15:07;102343.84;;;-1.59;95.25
76434;BME280;65265;53.200;6.080;2022-12-17T03:20:16;102345.63;;;-1.58;95.08
76434;BME280;65265;53.200;6.080;2022-12-17T03:25:25;102332.69;;;-1.54;94.91
76434;BME280;65265;53.200;6.080;2022-12-17T03:30:35;102335.03;;;-1.56;95.03
76434;BME280;65265;53.200;6.080;2022-12-17T03:35:59;102335.59;;;-1.58;94.63
76434;BME280;65265;53.200;6.080;2022-12-17T03:41:08;102333.47;;;-1.62;94.72
76434;BME280;65265;53.200;6.080;2022-12-17T03:46:18;102339.06;;;-1.65;94.85
76434;BME280;65265;53.200;6.080;2022-12-17T03:51:27;102347.09;;;-1.60;94.89
76434;BME280;65265;53.200;6.080;2022-12-17T03:56:36;102349.75;;;-1.59;95.01
76434;BME280;65265;53.200;6.080;2022-12-17T04:01:46;102346.28;;;-1.52;94.93
76434;BME280;65265;53.200;6.080;2022-12-17T04:06:55;102356.00;;;-1.55;94.60
76434;BME280;65265;53.200;6.080;2022-12-17T04:12:04;102360.28;;;-1.54;94.42
76434;BME280;65265;53.200;6.080;2022-12-17T04:17:15;102365.31;;;-1.54;94.54
76434;BME280;65265;53.200;6.080;2022-12-17T04:22:24;102381.81;;;-1.56;94.61
76434;BME280;65265;53.200;6.080;2022-12-17T04:27:33;102376.38;;;-1.52;94.37
76434;BME280;65265;53.200;6.080;2022-12-17T04:32:58;102371.75;;;-1.49;94.61
76434;BME280;65265;53.200;6.080;2022-12-17T04:38:07;102386.06;;;-1.48;94.64
76434;BME280;65265;53.200;6.080;2022-12-17T04:43:16;102375.97;;;-1.41;94.81
76434;BME280;65265;53.200;6.080;2022-12-17T04:48:27;102362.38;;;-1.43;94.39
76434;BME280;65265;53.200;6.080;2022-12-17T04:53:44;102350.50;;;-1.37;93.97
76434;BME280;65265;53.200;6.080;2022-12-17T04:58:53;102339.47;;;-1.46;94.04
76434;BME280;65265;53.200;6.080;2022-12-17T05:04:04;102355.56;;;-1.44;94.17
76434;BME280;65265;53.200;6.080;2022-12-17T05:09:13;102348.78;;;-1.45;94.19
76434;BME280;65265;53.200;6.080;2022-12-17T05:14:21;102357.56;;;-1.49;94.01
76434;BME280;65265;53.200;6.080;2022-12-17T05:19:32;102366.31;;;-1.45;94.48
76434;BME280;65265;53.200;6.080;2022-12-17T05:24:41;102367.72;;;-1.40;94.22
76434;BME280;65265;53.200;6.080;2022-12-17T05:29:50;102368.72;;;-1.54;94.46
76434;BME280;65265;53.200;6.080;2022-12-17T05:35:00;102368.63;;;-1.40;94.53
76434;BME280;65265;53.200;6.080;2022-12-17T05:40:10;102329.91;;;-1.64;94.40
76434;BME280;65265;53.200;6.080;2022-12-17T05:45:19;102371.84;;;-1.41;94.47
76434;BME280;65265;53.200;6.080;2022-12-17T05:50:30;102375.97;;;-1.41;94.33
76434;BME280;65265;53.200;6.080;2022-12-17T05:55:39;102373.09;;;-1.37;94.27
76434;BME280;65265;53.200;6.080;2022-12-17T06:00:57;102390.50;;;-1.46;94.00
76434;BME280;65265;53.200;6.080;2022-12-17T06:06:08;102407.41;;;-1.52;94.69
76434;BME280;65265;53.200;6.080;2022-12-17T06:11:17;102400.53;;;-1.46;94.52
76434;BME280;65265;53.200;6.080;2022-12-17T06:16:26;102396.03;;;-1.41;94.37
76434;BME280;65265;53.200;6.080;2022-12-17T06:21:36;102385.28;;;-1.40;94.54
76434;BME280;65265;53.200;6.080;2022-12-17T06:26:45;102389.56;;;-1.39;94.25
76434;BME280;65265;53.200;6.080;2022-12-17T06:31:54;102389.19;;;-1.35;94.12
76434;BME280;65265;53.200;6.080;2022-12-17T06:37:04;102394.34;;;-1.34;94.08
76434;BME280;65265;53.200;6.080;2022-12-17T06:42:13;102405.31;;;-1.33;93.83
76434;BME280;65265;53.200;6.080;2022-12-17T06:47:22;102402.63;;;-1.35;93.73
76434;BME280;65265;53.200;6.080;2022-12-17T06:52:33;102408.22;;;-1.37;93.51
76434;BME280;65265;53.200;6.080;2022-12-17T06:57:42;102420.25;;;-1.42;93.63
76434;BME280;65265;53.200;6.080;2022-12-17T07:03:05;102425.25;;;-1.42;93.73
76434;BME280;65265;53.200;6.080;2022-12-17T07:08:15;102410.06;;;-1.50;93.68
76434;BME280;65265;53.200;6.080;2022-12-17T07:13:24;102427.06;;;-1.48;93.74
76434;BME280;65265;53.200;6.080;2022-12-17T07:18:33;102416.88;;;-1.49;93.42
76434;BME280;65265;53.200;6.080;2022-12-17T07:23:44;102430.34;;;-1.56;93.23
76434;BME280;65265;53.200;6.080;2022-12-17T07:28:52;102427.34;;;-1.60;92.97
76434;BME280;65265;53.200;6.080;2022-12-17T07:34:01;102434.16;;;-1.59;92.81
76434;BME280;65265;53.200;6.080;2022-12-17T07:39:12;102445.44;;;-1.63;93.09
76434;BME280;65265;53.200;6.080;2022-12-17T07:44:21;102450.59;;;-1.61;92.75
76434;BME280;65265;53.200;6.080;2022-12-17T07:49:30;102456.94;;;-1.72;92.59
76434;BME280;65265;53.200;6.080;2022-12-17T07:54:40;102470.91;;;-1.74;92.75
76434;BME280;65265;53.200;6.080;2022-12-17T07:59:49;102471.13;;;-1.86;92.76
76434;BME280;65265;53.200;6.080;2022-12-17T08:04:58;102474.22;;;-1.89;93.04
76434;BME280;65265;53.200;6.080;2022-12-17T08:10:09;102469.88;;;-1.83;92.46
76434;BME280;65265;53.200;6.080;2022-12-17T08:15:18;102471.31;;;-1.85;92.41
76434;BME280;65265;53.200;6.080;2022-12-17T08:20:28;102476.53;;;-1.97;92.74
76434;BME280;65265;53.200;6.080;2022-12-17T08:25:38;102493.34;;;-1.82;92.88
76434;BME280;65265;53.200;6.080;2022-12-17T08:30:48;102501.94;;;-1.80;92.61
76434;BME280;65265;53.200;6.080;2022-12-17T08:35:57;102504.38;;;-1.73;92.43
76434;BME280;65265;53.200;6.080;2022-12-17T08:41:08;102509.81;;;-1.84;92.64
76434;BME280;65265;53.200;6.080;2022-12-17T08:46:17;102508.34;;;-1.75;92.53
76434;BME280;65265;53.200;6.080;2022-12-17T08:51:26;102511.22;;;-1.72;92.36
76434;BME280;65265;53.200;6.080;2022-12-17T08:56:36;102526.59;;;-1.69;92.33
76434;BME280;65265;53.200;6.080;2022-12-17T09:01:45;102520.63;;;-1.56;92.08
76434;BME280;65265;53.200;6.080;2022-12-17T09:06:54;102527.25;;;-1.49;91.52
76434;BME280;65265;53.200;6.080;2022-12-17T09:12:05;102525.44;;;-1.50;91.38
76434;BME280;65265;53.200;6.080;2022-12-17T09:17:14;102514.88;;;-1.48;91.53
76434;BME280;65265;53.200;6.080;2022-12-17T09:22:23;102521.66;;;-1.47;91.75
76434;BME280;65265;53.200;6.080;2022-12-17T09:27:33;102544.22;;;-1.33;91.48
76434;BME280;65265;53.200;6.080;2022-12-17T09:32:41;102535.38;;;-1.29;91.65
76434;BME280;65265;53.200;6.080;2022-12-17T09:37:51;102542.97;;;-1.00;90.71
76434;BME280;65265;53.200;6.080;2022-12-17T09:43:05;102537.13;;;-0.40;88.39
76434;BME280;65265;53.200;6.080;2022-12-17T09:48:22;102544.00;;;-0.46;86.52
76434;BME280;65265;53.200;6.080;2022-12-17T09:53:36;102540.97;;;-0.50;86.70
76434;BME280;65265;53.200;6.080;2022-12-17T09:58:47;102550.09;;;-0.66;87.73
76434;BME280;65265;53.200;6.080;2022-12-17T10:03:56;102554.63;;;-0.78;89.20
76434;BME280;65265;53.200;6.080;2022-12-17T10:09:10;102541.59;;;-0.82;89.43
76434;BME280;65265;53.200;6.080;2022-12-17T10:14:22;102528.53;;;-0.87;89.00
76434;BME280;65265;53.200;6.080;2022-12-17T10:19:34;102538.00;;;-0.84;89.42
76434;BME280;65265;53.200;6.080;2022-12-17T10:24:56;102549.06;;;-0.75;89.50
76434;BME280;65265;53.200;6.080;2022-12-17T10:30:14;102559.16;;;-0.82;89.24
76434;BME280;65265;53.200;6.080;2022-12-17T10:35:24;102558.06;;;-0.84;88.96
76434;BME280;65265;53.200;6.080;2022-12-17T10:40:35;102559.50;;;-0.79;89.47
76434;BME280;65265;53.200;6.080;2022-12-17T10:45:55;102560.13;;;-0.66;89.13
76434;BME280;65265;53.200;6.080;2022-12-17T10:51:05;102548.94;;;-0.61;88.81
76434;BME280;65265;53.200;6.080;2022-12-17T10:56:25;102532.22;;;-0.54;88.92
76434;BME280;65265;53.200;6.080;2022-12-17T11:01:38;102544.91;;;-0.45;88.25
76434;BME280;65265;53.200;6.080;2022-12-17T11:06:47;102555.44;;;-0.41;87.95
76434;BME280;65265;53.200;6.080;2022-12-17T11:11:58;102561.13;;;-0.35;88.64
76434;BME280;65265;53.200;6.080;2022-12-17T11:17:14;102547.28;;;-0.31;88.17
76434;BME280;65265;53.200;6.080;2022-12-17T11:22:31;102544.88;;;-0.23;87.63
76434;BME280;65265;53.200;6.080;2022-12-17T11:27:44;102557.88;;;-0.11;87.05
76434;BME280;65265;53.200;6.080;2022-12-17T11:33:08;102567.94;;;-0.11;86.38
76434;BME280;65265;53.200;6.080;2022-12-17T11:38:28;102572.75;;;-0.06;86.19
76434;BME280;65265;53.200;6.080;2022-12-17T11:43:43;102561.72;;;0.00;86.49
76434;BME280;65265;53.200;6.080;2022-12-17T11:49:01;102558.06;;;0.05;86.71
76434;BME280;65265;53.200;6.080;2022-12-17T11:54:18;102554.38;;;0.17;84.31
76434;BME280;65265;53.200;6.080;2022-12-17T11:59:31;102548.25;;;0.15;85.00
76434;BME280;65265;53.200;6.080;2022-12-17T12:04:51;102538.94;;;0.14;85.13
76434;BME280;65265;53.200;6.080;2022-12-17T12:10:14;102553.53;;;0.25;84.63
76434;BME280;65265;53.200;6.080;2022-12-17T12:15:28;102554.03;;;0.45;84.69
76434;BME280;65265;53.200;6.080;2022-12-17T12:21:10;102545.94;;;0.63;82.56
76434;BME280;65265;53.200;6.080;2022-12-17T12:26:27;102548.69;;;0.73;81.81
76434;BME280;65265;53.200;6.080;2022-12-17T12:31:42;102534.19;;;0.79;81.58
76434;BME280;65265;53.200;6.080;2022-12-17T12:36:53;102536.09;;;0.73;81.40
76434;BME280;65265;53.200;6.080;2022-12-17T12:42:06;102518.78;;;0.76;82.22
76434;BME280;65265;53.200;6.080;2022-12-17T12:47:23;102525.78;;;0.79;81.78
76434;BME280;65265;53.200;6.080;2022-12-17T12:52:38;102519.75;;;0.85;81.32
76434;BME280;65265;53.200;6.080;2022-12-17T12:57:56;102520.78;;;0.87;81.43
76434;BME280;65265;53.200;6.080;2022-12-17T13:03:07;102512.97;;;0.93;80.62
76434;BME280;65265;53.200;6.080;2022-12-17T13:08:22;102518.31;;;0.96;80.84
76434;BME280;65265;53.200;6.080;2022-12-17T13:13:23;102515.25;;;0.98;80.21
76434;BME280;65265;53.200;6.080;2022-12-17T13:18:22;102515.06;;;0.97;80.50
76434;BME280;65265;53.200;6.080;2022-12-17T13:23:26;102527.41;;;1.02;80.16
76434;BME280;65265;53.200;6.080;2022-12-17T13:28:26;102528.13;;;1.01;80.84
76434;BME280;65265;53.200;6.080;2022-12-17T13:33:25;102522.66;;;1.05;80.71
76434;BME280;65265;53.200;6.080;2022-12-17T13:38:25;102522.53;;;1.04;80.37
76434;BME280;65265;53.200;6.080;2022-12-17T13:43:23;102525.94;;;1.04;80.36
76434;BME280;65265;53.200;6.080;2022-12-17T13:48:20;102523.53;;;0.97;80.20
76434;BME280;65265;53.200;6.080;2022-12-17T13:53:14;102523.63;;;0.90;80.68
76434;BME280;65265;53.200;6.080;2022-12-17T13:58:19;102527.44;;;0.87;80.98
76434;BME280;65265;53.200;6.080;2022-12-17T14:03:10;102530.31;;;0.74;81.35
76434;BME280;65265;53.200;6.080;2022-12-17T14:08:03;102542.19;;;0.75;81.43
76434;BME280;65265;53.200;6.080;2022-12-17T14:13:03;102554.84;;;0.68;81.36
76434;BME280;65265;53.200;6.080;2022-12-17T14:17:57;102563.81;;;0.58;81.88
76434;BME280;65265;53.200;6.080;2022-12-17T14:22:51;102565.59;;;0.43;82.51
76434;BME280;65265;53.200;6.080;2022-12-17T14:27:54;102553.06;;;0.36;82.43
76434;BME280;65265;53.200;6.080;2022-12-17T14:32:46;102554.22;;;0.31;83.11
76434;BME280;65265;53.200;6.080;2022-12-17T14:37:39;102560.28;;;0.18;83.45
76434;BME280;65265;53.200;6.080;2022-12-17T14:42:33;102559.53;;;0.03;84.10
76434;BME280;65265;53.200;6.080;2022-12-17T14:47:27;102557.34;;;-0.09;84.52
76434;BME280;65265;53.200;6.080;2022-12-17T14:52:25;102565.47;;;-0.18;85.31
76434;BME280;65265;53.200;6.080;2022-12-17T14:57:22;102571.53;;;-0.32;85.63
76434;BME280;65265;53.200;6.080;2022-12-17T15:02:19;102579.22;;;-0.30;85.70
76434;BME280;65265;53.200;6.080;2022-12-17T15:07:13;102581.13;;;-0.43;85.88
76434;BME280;65265;53.200;6.080;2022-12-17T15:12:08;102588.34;;;-0.46;85.91
76434;BME280;65265;53.200;6.080;2022-12-17T15:17:01;102588.59;;;-0.59;86.11
76434;BME280;65265;53.200;6.080;2022-12-17T15:21:54;102595.81;;;-0.62;86.52
76434;BME280;65265;53.200;6.080;2022-12-17T15:26:46;102589.03;;;-0.70;86.98
76434;BME280;65265;53.200;6.080;2022-12-17T15:31:38;102603.66;;;-0.81;87.44
76434;BME280;65265;53.200;6.080;2022-12-17T15:36:31;102602.06;;;-0.88;87.50
76434;BME280;65265;53.200;6.080;2022-12-17T15:41:23;102612.88;;;-0.96;87.73
76434;BME280;65265;53.200;6.080;2022-12-17T15:46:32;102628.66;;;-1.04;87.94
76434;BME280;65265;53.200;6.080;2022-12-17T15:51:23;102633.53;;;-1.05;87.97
76434;BME280;65265;53.200;6.080;2022-12-17T15:56:26;102625.28;;;-1.04;88.14
76434;BME280;65265;53.200;6.080;2022-12-17T16:01:18;102631.78;;;-1.13;88.27
76434;BME280;65265;53.200;6.080;2022-12-17T16:06:10;102630.34;;;-1.18;88.48
76434;BME280;65265;53.200;6.080;2022-12-17T16:11:05;102640.75;;;-1.22;88.24
76434;BME280;65265;53.200;6.080;2022-12-17T16:15:58;102629.31;;;-1.27;88.50
76434;BME280;65265;53.200;6.080;2022-12-17T16:20:49;102633.28;;;-1.36;88.96
76434;BME280;65265;53.200;6.080;2022-12-17T16:25:41;102628.81;;;-1.46;88.91
76434;BME280;65265;53.200;6.080;2022-12-17T16:30:32;102632.94;;;-1.46;89.22
76434;BME280;65265;53.200;6.080;2022-12-17T16:35:25;102627.03;;;-1.47;89.27
76434;BME280;65265;53.200;6.080;2022-12-17T16:40:18;102638.31;;;-1.50;89.32
76434;BME280;65265;53.200;6.080;2022-12-17T16:45:09;102633.16;;;-1.52;89.70
76434;BME280;65265;53.200;6.080;2022-12-17T16:50:02;102629.75;;;-1.59;89.53
76434;BME280;65265;53.200;6.080;2022-12-17T16:54:55;102632.09;;;-1.61;89.67
76434;BME280;65265;53.200;6.080;2022-12-17T16:59:46;102635.88;;;-1.71;89.45
76434;BME280;65265;53.200;6.080;2022-12-17T17:04:38;102637.47;;;-1.72;89.71
76434;BME280;65265;53.200;6.080;2022-12-17T17:09:29;102653.06;;;-1.74;89.79
76434;BME280;65265;53.200;6.080;2022-12-17T17:14:22;102660.41;;;-1.76;89.52
76434;BME280;65265;53.200;6.080;2022-12-17T17:19:14;102651.25;;;-1.75;89.55
76434;BME280;65265;53.200;6.080;2022-12-17T17:24:09;102653.41;;;-1.85;89.57
76434;BME280;65265;53.200;6.080;2022-12-17T17:29:02;102662.22;;;-1.89;89.68
76434;BME280;65265;53.200;6.080;2022-12-17T17:33:55;102663.47;;;-1.92;89.60
76434;BME280;65265;53.200;6.080;2022-12-17T17:38:49;102657.56;;;-2.00;89.92
76434;BME280;65265;53.200;6.080;2022-12-17T17:43:40;102657.72;;;-1.98;90.34
76434;BME280;65265;53.200;6.080;2022-12-17T17:48:33;102650.56;;;-2.02;90.25
76434;BME280;65265;53.200;6.080;2022-12-17T17:53:26;102654.53;;;-2.04;89.74
76434;BME280;65265;53.200;6.080;2022-12-17T17:58:17;102667.78;;;-2.05;89.92
76434;BME280;65265;53.200;6.080;2022-12-17T18:03:09;102678.81;;;-2.17;90.01
76434;BME280;65265;53.200;6.080;2022-12-17T18:08:00;102676.16;;;-2.19;90.40
76434;BME280;65265;53.200;6.080;2022-12-17T18:12:54;102691.38;;;-2.24;90.18
76434;BME280;65265;53.200;6.080;2022-12-17T18:18:03;102700.28;;;-2.33;90.79
76434;BME280;65265;53.200;6.080;2022-12-17T18:22:55;102699.06;;;-2.30;90.59
76434;BME280;65265;53.200;6.080;2022-12-17T18:27:50;102694.00;;;-2.37;90.71
76434;BME280;65265;53.200;6.080;2022-12-17T18:32:43;102703.72;;;-2.33;90.61
76434;BME280;65265;53.200;6.080;2022-12-17T18:37:38;102699.75;;;-2.38;90.45
76434;BME280;65265;53.200;6.080;2022-12-17T18:42:30;102692.75;;;-2.40;90.32
76434;BME280;65265;53.200;6.080;2022-12-17T18:47:39;102707.25;;;-2.38;90.51
76434;BME280;65265;53.200;6.080;2022-12-17T18:52:33;102723.91;;;-2.38;90.41
76434;BME280;65265;53.200;6.080;2022-12-17T18:57:24;102716.72;;;-2.49;90.62
76434;BME280;65265;53.200;6.080;2022-12-17T19:02:16;102724.56;;;-2.53;90.91
76434;BME280;65265;53.200;6.080;2022-12-17T19:07:07;102731.03;;;-2.48;91.06
76434;BME280;65265;53.200;6.080;2022-12-17T19:12:01;102729.97;;;-2.43;90.93
76434;BME280;65265;53.200;6.080;2022-12-17T19:16:54;102733.53;;;-2.48;90.45
76434;BME280;65265;53.200;6.080;2022-12-17T19:21:47;102724.91;;;-2.57;90.87
76434;BME280;65265;53.200;6.080;2022-12-17T19:26:41;102728.81;;;-2.66;90.79
76434;BME280;65265;53.200;6.080;2022-12-17T19:31:34;102722.19;;;-2.72;91.12
76434;BME280;65265;53.200;6.080;2022-12-17T19:36:27;102720.19;;;-2.75;90.92
76434;BME280;65265;53.200;6.080;2022-12-17T19:41:19;102718.41;;;-2.76;91.01
76434;BME280;65265;53.200;6.080;2022-12-17T19:46:12;102732.91;;;-2.73;90.85
76434;BME280;65265;53.200;6.080;2022-12-17T19:51:07;102732.84;;;-2.80;90.98
76434;BME280;65265;53.200;6.080;2022-12-17T19:56:08;102740.19;;;-2.82;90.89
76434;BME280;65265;53.200;6.080;2022-12-17T20:01:04;102753.75;;;-2.87;91.16
76434;BME280;65265;53.200;6.080;2022-12-17T20:05:55;102757.31;;;-2.92;91.16
76434;BME280;65265;53.200;6.080;2022-12-17T20:10:48;102764.97;;;-2.97;91.22
76434;BME280;65265;53.200;6.080;2022-12-17T20:15:40;102765.44;;;-3.07;91.69
76434;BME280;65265;53.200;6.080;2022-12-17T20:20:31;102771.84;;;-3.16;91.66
76434;BME280;65265;53.200;6.080;2022-12-17T20:25:23;102774.34;;;-3.09;91.73
76434;BME280;65265;53.200;6.080;2022-12-17T20:30:16;102769.50;;;-3.14;91.45
76434;BME280;65265;53.200;6.080;2022-12-17T20:35:08;102777.38;;;-3.11;91.58
76434;BME280;65265;53.200;6.080;2022-12-17T20:39:59;102790.59;;;-3.12;91.70
76434;BME280;65265;53.200;6.080;2022-12-17T20:44:51;102788.19;;;-3.25;92.05
76434;BME280;65265;53.200;6.080;2022-12-17T20:49:44;102788.56;;;-3.22;91.87
76434;BME280;65265;53.200;6.080;2022-12-17T20:54:36;102793.19;;;-3.25;92.22
76434;BME280;65265;53.200;6.080;2022-12-17T20:59:27;102792.00;;;-3.14;92.25
76434;BME280;65265;53.200;6.080;2022-12-17T21:04:19;102791.06;;;-3.22;92.09
76434;BME280;65265;53.200;6.080;2022-12-17T21:09:12;102786.41;;;-3.26;91.82
76434;BME280;65265;53.200;6.080;2022-12-17T21:14:06;102779.84;;;-3.18;91.94
76434;BME280;65265;53.200;6.080;2022-12-17T21:18:59;102791.00;;;-3.29;92.05
76434;BME280;65265;53.200;6.080;2022-12-17T21:23:51;102794.75;;;-3.32;92.34
76434;BME280;65265;53.200;6.080;2022-12-17T21:28:46;102801.16;;;-3.34;92.43
76434;BME280;65265;53.200;6.080;2022-12-17T21:33:38;102808.84;;;-3.33;92.40
76434;BME280;65265;53.200;6.080;2022-12-17T21:38:29;102806.69;;;-3.37;92.10
76434;BME280;65265;53.200;6.080;2022-12-17T21:43:21;102778.38;;;-3.50;92.08
76434;BME280;65265;53.200;6.080;2022-12-17T21:48:14;102795.41;;;-3.40;92.17
76434;BME280;65265;53.200;6.080;2022-12-17T21:53:05;102798.47;;;-3.36;92.39
76434;BME280;65265;53.200;6.080;2022-12-17T21:57:57;102809.34;;;-3.35;92.11
76434;BME280;65265;53.200;6.080;2022-12-17T22:02:49;102805.91;;;-3.43;92.18
76434;BME280;65265;53.200;6.080;2022-12-17T22:07:42;102806.81;;;-3.42;92.51
76434;BME280;65265;53.200;6.080;2022-12-17T22:12:33;102816.03;;;-3.48;92.40
76434;BME280;65265;53.200;6.080;2022-12-17T22:17:42;102834.84;;;-3.45;92.43
76434;BME280;65265;53.200;6.080;2022-12-17T22:22:34;102838.69;;;-3.54;92.30
76434;BME280;65265;53.200;6.080;2022-12-17T22:27:27;102850.53;;;-3.46;92.63
76434;BME280;65265;53.200;6.080;2022-12-17T22:32:18;102858.38;;;-3.50;92.50
76434;BME280;65265;53.200;6.080;2022-12-17T22:37:27;102850.75;;;-3.44;92.48
76434;BME280;65265;53.200;6.080;2022-12-17T22:42:19;102844.25;;;-3.49;92.46
76434;BME280;65265;53.200;6.080;2022-12-17T22:47:29;102830.53;;;-3.46;92.79
76434;BME280;65265;53.200;6.080;2022-12-17T22:52:21;102827.34;;;-3.45;92.92
76434;BME280;65265;53.200;6.080;2022-12-17T22:57:13;102819.63;;;-3.46;92.72
76434;BME280;65265;53.200;6.080;2022-12-17T23:02:04;102828.41;;;-3.43;92.77
76434;BME280;65265;53.200;6.080;2022-12-17T23:06:59;102832.56;;;-3.36;92.50
76434;BME280;65265;53.200;6.080;2022-12-17T23:11:51;102829.91;;;-3.38;92.80
76434;BME280;65265;53.200;6.080;2022-12-17T23:16:43;102832.41;;;-3.38;92.60
76434;BME280;65265;53.200;6.080;2022-12-17T23:21:36;102836.84;;;-3.42;92.59
76434;BME280;65265;53.200;6.080;2022-12-17T23:26:31;102856.50;;;-3.38;92.80
76434;BME280;65265;53.200;6.080;2022-12-17T23:31:25;102850.59;;;-3.39;92.85
76434;BME280;65265;53.200;6.080;2022-12-17T23:36:19;102849.91;;;-3.38;93.03
76434;BME280;65265;53.200;6.080;2022-12-17T23:41:13;102839.00;;;-3.38;92.70
76434;BME280;65265;53.200;6.080;2022-12-17T23:46:08;102827.06;;;-3.34;92.48
76434;BME280;65265;53.200;6.080;2022-12-17T23:51:00;102831.13;;;-3.41;92.55
76434;BME280;65265;53.200;6.080;2022-12-17T23:55:52;102833.03;;;-3.46;92.94
